Time;durP1;ratioP1;P1;durP2;ratioP2;P2;SDS_P1;SDS_P2;PMS_P1;PMS_P2;Temp;Humidity;BMP_temperature;BMP_pressure;BME280_temperature;BME280_humidity;BME280_pressure;Samples;Min_cycle;Max_cycle;Signal;HPM_P1;HPM_P2
2021/12/14 00:00:45;;;;;;;9.88;2.65;;;26.00;94.60;;;;;;5079426;28;20072;-66
2021/12/14 00:03:15;;;;;;;10.85;2.75;;;25.90;94.10;;;;;;5079482;28;20088;-68
2021/12/14 00:05:44;;;;;;;9.93;2.47;;;25.80;94.80;;;;;;5078295;28;20468;-71
2021/12/14 00:08:14;;;;;;;13.05;3.80;;;25.90;96.40;;;;;;5077492;28;20028;-66
2021/12/14 00:10:56;;;;;;;11.27;4.70;;;25.70;95.60;;;;;;5080028;28;20063;-71
2021/12/14 00:13:57;;;;;;;15.63;4.20;;;26.00;94.90;;;;;;5079260;28;20063;-68
2021/12/14 00:16:15;;;;;;;11.85;4.25;;;26.30;94.80;;;;;;5078321;28;20036;-70
2021/12/14 00:18:43;;;;;;;9.77;3.40;;;26.70;94.20;;;;;;5079175;28;20544;-71
2021/12/14 00:21:20;;;;;;;12.68;4.07;;;26.70;93.80;;;;;;5079563;28;21203;-66
2021/12/14 00:26:46;;;;;;;18.85;9.57;;;26.70;93.80;;;;;;5079978;28;20042;-73
2021/12/14 00:29:24;;;;;;;17.08;4.05;;;26.90;93.70;;;;;;5095131;28;20038;-64
2021/12/14 00:31:53;;;;;;;22.02;4.00;;;27.50;92.60;;;;;;5080154;28;20036;-70
2021/12/14 00:34:34;;;;;;;14.93;2.67;;;27.70;90.80;;;;;;5080184;28;20447;-65
2021/12/14 00:37:03;;;;;;;9.20;2.30;;;27.70;91.30;;;;;;5077616;28;20471;-68
2021/12/14 00:39:30;;;;;;;7.90;2.55;;;27.90;91.50;;;;;;5078638;28;20442;-66
2021/12/14 00:41:58;;;;;;;11.55;3.33;;;28.10;90.60;;;;;;5078526;28;20025;-68
2021/12/14 00:44:25;;;;;;;9.48;2.53;;;27.90;85.60;;;;;;5077529;28;20120;-70
2021/12/14 00:46:52;;;;;;;13.07;3.25;;;27.50;87.20;;;;;;5077820;28;20085;-68
2021/12/14 00:49:19;;;;;;;9.48;2.53;;;27.20;88.70;;;;;;5078533;28;20106;-66
2021/12/14 00:51:47;;;;;;;7.50;2.50;;;27.10;88.90;;;;;;5089573;28;20024;-66
2021/12/14 00:54:16;;;;;;;9.10;2.65;;;27.40;86.40;;;;;;5074386;28;20035;-72
2021/12/14 00:56:45;;;;;;;11.73;2.60;;;27.50;88.50;;;;;;5076339;28;20506;-68
2021/12/14 00:59:13;;;;;;;8.10;2.67;;;27.80;88.80;;;;;;5075588;28;20492;-68
2021/12/14 01:01:46;;;;;;;7.50;2.00;;;28.00;86.40;;;;;;5075051;28;20096;-68
2021/12/14 01:04:28;;;;;;;5.85;2.20;;;28.30;82.90;;;;;;5075325;28;20039;-70
2021/12/14 01:06:56;;;;;;;5.35;2.03;;;28.50;76.90;;;;;;5076152;28;20655;-73
2021/12/14 01:09:35;;;;;;;2.97;1.48;;;28.80;76.50;;;;;;5074203;28;20037;-66
2021/12/14 01:12:09;;;;;;;6.22;1.85;;;29.30;74.80;;;;;;5076852;28;20155;-68
2021/12/14 01:14:48;;;;;;;8.20;2.08;;;29.30;71.80;;;;;;5076454;28;20016;-69
2021/12/14 01:17:40;;;;;;;7.45;2.30;;;29.20;79.50;;;;;;5076428;28;20016;-66
2021/12/14 01:20:09;;;;;;;5.63;1.90;;;29.30;73.80;;;;;;5076441;28;20365;-70
2021/12/14 01:25:11;;;;;;;7.78;2.38;;;29.50;71.40;;;;;;5075586;28;20024;-69
2021/12/14 01:28:01;;;;;;;11.25;2.65;;;29.30;72.20;;;;;;5076471;28;20169;-70
2021/12/14 01:30:29;;;;;;;11.05;3.15;;;29.10;72.90;;;;;;5074746;28;20928;-71
2021/12/14 01:33:01;;;;;;;5.25;2.33;;;29.20;76.20;;;;;;5075739;28;20044;-69
2021/12/14 01:35:30;;;;;;;;;;;29.20;74.30;;;;;;5075672;28;20145;-70
2021/12/14 01:38:01;;;;;;;5.40;1.75;;;29.50;75.50;;;;;;5075258;28;19908;-71
2021/12/14 01:43:33;;;;;;;5.97;1.85;;;30.10;65.20;;;;;;5075083;28;20039;-69
2021/12/14 01:46:09;;;;;;;4.65;1.90;;;30.40;64.80;;;;;;5075449;28;20062;-67
2021/12/14 01:48:36;;;;;;;6.25;2.17;;;30.90;65.00;;;;;;5074114;28;20711;-71
2021/12/14 01:51:06;;;;;;;7.88;2.03;;;31.20;68.40;;;;;;5075139;28;20028;-68
2021/12/14 01:53:36;;;;;;;7.97;2.17;;;31.00;71.30;;;;;;5076140;28;20028;-69
2021/12/14 01:56:08;;;;;;;6.07;2.15;;;31.60;65.30;;;;;;5075853;28;20021;-74
2021/12/14 01:58:48;;;;;;;6.90;2.70;;;31.50;65.10;;;;;;5074291;28;20157;-70
2021/12/14 02:01:20;;;;;;;6.03;2.00;;;31.50;65.30;;;;;;5075635;28;20028;-70
2021/12/14 02:03:52;;;;;;;6.30;2.38;;;31.80;64.50;;;;;;5075262;28;20781;-73
2021/12/14 02:06:27;;;;;;;5.93;2.10;;;32.30;63.00;;;;;;5075278;28;20109;-74
2021/12/14 02:08:59;;;;;;;10.32;2.67;;;32.30;59.60;;;;;;5072696;28;20488;-75
2021/12/14 02:11:33;;;;;;;7.63;2.38;;;31.60;59.70;;;;;;5075650;28;20472;-70
2021/12/14 02:14:00;;;;;;;8.05;2.65;;;31.50;60.80;;;;;;5075182;28;20620;-70
2021/12/14 02:16:27;;;;;;;4.75;2.20;;;31.80;60.30;;;;;;5076541;28;20028;-70
2021/12/14 02:19:00;;;;;;;5.90;2.28;;;31.80;61.30;;;;;;5077472;28;20024;-69
2021/12/14 02:21:27;;;;;;;9.57;2.50;;;31.60;60.20;;;;;;5075845;28;20036;-73
2021/12/14 02:23:56;;;;;;;6.15;2.20;;;31.70;62.00;;;;;;5075660;28;20036;-69
2021/12/14 02:26:27;;;;;;;5.40;1.80;;;32.20;61.50;;;;;;5077138;28;20036;-68
2021/12/14 02:28:56;;;;;;;5.25;2.00;;;32.50;58.60;;;;;;5075562;28;20153;-72
2021/12/14 02:31:25;;;;;;;7.35;2.50;;;32.50;56.70;;;;;;5073085;28;20166;-69
2021/12/14 02:33:55;;;;;;;8.13;2.75;;;32.60;54.20;;;;;;5072043;28;20093;-66
2021/12/14 02:36:31;;;;;;;2.95;1.90;;;32.50;53.80;;;;;;5076767;28;20028;-68
2021/12/14 02:39:12;;;;;;;8.30;3.75;;;32.30;51.70;;;;;;5076193;28;20032;-74
2021/12/14 02:41:49;;;;;;;2.67;1.67;;;32.30;55.50;;;;;;5078878;28;20024;-70
2021/12/14 02:44:18;;;;;;;6.30;1.73;;;32.30;53.20;;;;;;5079633;28;20036;-74
2021/12/14 02:46:52;;;;;;;5.13;2.25;;;32.40;53.20;;;;;;5080278;28;20047;-70
2021/12/14 02:49:23;;;;;;;4.75;2.40;;;32.30;51.70;;;;;;5080337;28;20718;-75
2021/12/14 02:51:56;;;;;;;5.93;2.28;;;32.10;56.40;;;;;;5079167;28;20032;-70
2021/12/14 02:54:28;;;;;;;9.15;3.72;;;32.70;54.60;;;;;;5097010;28;20479;-69
2021/12/14 02:57:00;;;;;;;8.18;3.00;;;32.60;59.70;;;;;;5081076;28;20107;-68
2021/12/14 02:59:31;;;;;;;9.10;2.63;;;32.10;61.90;;;;;;5081080;28;20033;-72
2021/12/14 03:02:04;;;;;;;9.90;2.75;;;32.20;61.80;;;;;;5080104;28;20032;-68
2021/12/14 03:04:37;;;;;;;7.00;3.28;;;32.60;63.20;;;;;;5079663;28;20016;-68
2021/12/14 03:07:05;;;;;;;6.93;2.50;;;32.40;60.40;;;;;;5078311;28;20030;-65
2021/12/14 03:10:17;;;;;;;8.45;2.47;;;31.30;63.60;;;;;;5079877;28;20044;-69
2021/12/14 03:12:47;;;;;;;8.83;2.80;;;31.00;65.90;;;;;;5080410;28;21120;-68
2021/12/14 03:15:14;;;;;;;6.68;3.00;;;31.30;66.40;;;;;;5080033;28;20013;-74
2021/12/14 03:17:43;;;;;;;6.25;2.38;;;31.80;63.70;;;;;;5080023;28;20117;-69
2021/12/14 03:20:26;;;;;;;8.05;2.47;;;31.70;62.70;;;;;;5080269;28;20024;-65
2021/12/14 03:23:02;;;;;;;9.63;3.75;;;31.90;63.50;;;;;;5078918;28;20153;-66
2021/12/14 03:25:31;;;;;;;13.32;3.40;;;32.10;62.80;;;;;;5080324;28;20499;-65
2021/12/14 03:28:00;;;;;;;7.78;2.08;;;32.40;62.90;;;;;;5076880;28;20137;-65
2021/12/14 03:30:26;;;;;;;7.97;2.78;;;32.60;60.50;;;;;;5080121;28;20021;-68
2021/12/14 03:32:57;;;;;;;6.60;2.13;;;32.50;58.00;;;;;;5079617;28;20032;-69
2021/12/14 03:35:40;;;;;;;8.30;2.38;;;32.00;57.80;;;;;;5080084;28;20111;-69
2021/12/14 03:38:22;;;;;;;6.90;2.53;;;31.30;59.10;;;;;;5077863;28;20036;-69
2021/12/14 03:41:10;;;;;;;8.35;2.30;;;31.80;59.40;;;;;;5079499;28;20024;-64
2021/12/14 03:43:39;;;;;;;6.93;2.15;;;31.90;61.50;;;;;;5079105;28;20172;-74
2021/12/14 03:46:07;;;;;;;4.68;1.85;;;31.70;61.40;;;;;;5078361;28;20044;-74
2021/12/14 03:48:37;;;;;;;6.18;2.17;;;32.10;59.50;;;;;;5079637;28;20028;-73
2021/12/14 03:51:06;;;;;;;6.47;2.33;;;32.00;61.20;;;;;;5080110;28;20420;-68
2021/12/14 03:53:33;;;;;;;6.68;1.80;;;32.30;61.80;;;;;;5079062;28;20483;-69
2021/12/14 03:56:05;;;;;;;9.10;2.70;;;32.50;63.30;;;;;;5080027;28;21212;-70
2021/12/14 03:58:35;;;;;;;;;;;32.70;60.00;;;;;;5077159;28;20026;-65
2021/12/14 04:01:16;;;;;;;6.50;2.22;;;33.00;60.30;;;;;;5077582;28;19919;-69
2021/12/14 04:03:45;;;;;;;5.07;2.10;;;32.80;60.70;;;;;;5078294;28;20082;-68
2021/12/14 04:06:14;;;;;;;7.28;2.35;;;32.20;60.60;;;;;;5079588;28;20088;-69
2021/12/14 04:08:42;;;;;;;6.65;2.15;;;31.50;62.50;;;;;;5077526;28;20066;-73
2021/12/14 04:11:11;;;;;;;5.38;1.70;;;31.20;62.90;;;;;;5079007;28;20032;-64
2021/12/14 04:13:42;;;;;;;5.28;1.90;;;31.10;62.90;;;;;;5079266;28;20433;-68
2021/12/14 04:16:11;;;;;;;6.05;2.00;;;31.30;64.40;;;;;;5078567;28;20016;-65
2021/12/14 04:18:38;;;;;;;6.78;2.05;;;31.90;63.10;;;;;;5079207;28;20667;-69
2021/12/14 04:21:06;;;;;;;6.90;2.13;;;32.40;62.50;;;;;;5079578;28;20032;-65
2021/12/14 04:23:45;;;;;;;6.63;1.70;;;32.60;61.80;;;;;;5077604;28;20366;-65
2021/12/14 04:26:14;;;;;;;4.68;1.58;;;33.10;59.20;;;;;;5076505;28;20029;-69
2021/12/14 04:28:48;;;;;;;6.60;1.98;;;32.50;59.60;;;;;;5077948;28;20027;-72
2021/12/14 04:31:16;;;;;;;4.63;1.85;;;32.70;61.30;;;;;;5078110;28;20536;-73
2021/12/14 04:33:46;;;;;;;3.50;1.73;;;33.00;58.70;;;;;;5078634;28;20681;-65
2021/12/14 04:36:19;;;;;;;5.00;2.10;;;32.70;58.40;;;;;;5074849;28;20111;-70
2021/12/14 04:38:59;;;;;;;6.88;2.10;;;32.60;58.90;;;;;;5077783;28;20262;-69
2021/12/14 04:52:42;;;;;;;7.10;1.50;;;29.60;66.50;;;;;;5076340;28;20486;-67
2021/12/14 04:55:11;;;;;;;6.32;1.80;;;30.00;64.90;;;;;;5076443;28;20066;-72
2021/12/14 04:57:47;;;;;;;6.65;2.17;;;30.70;65.50;;;;;;5077676;28;20107;-71
2021/12/14 05:00:35;;;;;;;4.32;1.85;;;31.40;63.20;;;;;;5077859;28;20522;-69
2021/12/14 05:03:23;;;;;;;4.45;1.67;;;31.70;60.20;;;;;;5076543;28;20056;-65
2021/12/14 05:06:08;;;;;;;4.35;2.20;;;31.20;60.60;;;;;;5076390;28;20031;-65
2021/12/14 05:11:12;;;;;;;6.60;1.90;;;31.10;63.60;;;;;;5076468;28;20099;-75
2021/12/14 05:13:44;;;;;;;4.47;1.60;;;31.20;61.50;;;;;;5076411;28;20101;-68
2021/12/14 05:16:18;;;;;;;7.43;1.30;;;31.30;61.20;;;;;;5076285;28;20032;-65
2021/12/14 05:18:51;;;;;;;5.85;1.27;;;31.50;60.80;;;;;;5077025;28;20035;-65
2021/12/14 05:21:32;;;;;;;6.32;1.60;;;31.80;59.60;;;;;;5075506;28;20111;-66
2021/12/14 05:24:01;;;;;;;7.18;1.73;;;31.70;59.60;;;;;;5075850;28;21027;-65
2021/12/14 05:26:28;;;;;;;4.47;2.10;;;31.70;59.40;;;;;;5076632;28;20031;-65
2021/12/14 05:28:55;;;;;;;3.17;1.65;;;31.10;61.70;;;;;;5076022;28;20028;-68
2021/12/14 05:31:23;;;;;;;4.93;1.48;;;31.10;60.90;;;;;;5076001;28;20036;-67
2021/12/14 05:33:50;;;;;;;7.13;1.63;;;31.00;61.30;;;;;;5075511;28;20059;-72
2021/12/14 05:36:20;;;;;;;3.72;1.60;;;31.30;61.60;;;;;;5074520;28;20028;-66
2021/12/14 05:44:22;;;;;;;5.05;1.60;;;31.00;61.80;;;;;;5120872;22;20050;-68
2021/12/14 05:46:53;;;;;;;6.32;1.60;;;30.60;60.90;;;;;;5117008;28;20062;-74
2021/12/14 05:49:23;;;;;;;3.90;1.35;;;30.50;61.60;;;;;;5115096;28;20142;-68
2021/12/14 05:51:54;;;;;;;7.93;1.60;;;30.80;61.00;;;;;;5115888;27;20110;-65
2021/12/14 05:54:27;;;;;;;4.03;1.98;;;31.00;61.80;;;;;;5118075;27;20522;-69
2021/12/14 05:56:56;;;;;;;6.88;3.53;;;31.50;61.50;;;;;;5116557;28;20020;-71
2021/12/14 05:59:28;;;;;;;4.13;1.83;;;31.90;59.80;;;;;;5116338;28;20031;-68
2021/12/14 06:01:57;;;;;;;5.70;1.75;;;32.20;58.30;;;;;;5115851;28;20092;-68
2021/12/14 06:04:44;;;;;;;2.67;1.55;;;32.10;58.80;;;;;;4311902;28;10020708;-68
2021/12/14 06:07:11;;;;;;;6.03;1.50;;;31.60;57.80;;;;;;5114383;28;20368;-69
2021/12/14 06:09:42;;;;;;;6.03;1.90;;;32.00;59.40;;;;;;5099627;28;20603;-70
2021/12/14 06:12:14;;;;;;;4.30;1.50;;;32.70;56.10;;;;;;5112889;28;20026;-69
2021/12/14 06:14:50;;;;;;;6.80;2.15;;;32.40;56.40;;;;;;5113413;27;20019;-69
2021/12/14 06:17:22;;;;;;;5.80;1.23;;;32.30;57.60;;;;;;5118059;27;20183;-69
2021/12/14 06:19:55;;;;;;;3.50;1.38;;;32.10;56.50;;;;;;5126992;27;20398;-69
2021/12/14 06:22:24;;;;;;;4.18;1.65;;;31.50;57.50;;;;;;5107681;27;20095;-68
2021/12/14 06:24:56;;;;;;;4.18;1.75;;;31.40;58.00;;;;;;5128088;27;20023;-68
2021/12/14 06:27:26;;;;;;;6.40;1.50;;;31.20;60.10;;;;;;5107634;27;20031;-69
2021/12/14 06:30:00;;;;;;;3.63;1.90;;;31.60;58.30;;;;;;5126858;27;20027;-70
2021/12/14 06:32:30;;;;;;;3.75;1.55;;;31.70;59.40;;;;;;5128797;27;20015;-69
2021/12/14 06:35:10;;;;;;;5.65;3.15;;;32.20;59.60;;;;;;5128459;27;20039;-69
2021/12/14 06:41:17;;;;;;;5.20;1.65;;;31.30;58.50;;;;;;5126059;27;20045;-71
2021/12/14 06:43:56;;;;;;;5.53;1.55;;;31.20;58.60;;;;;;5124983;27;20065;-69
2021/12/14 06:46:33;;;;;;;6.78;3.30;;;31.20;58.60;;;;;;5107606;27;20051;-70
2021/12/14 06:49:07;;;;;;;5.82;1.70;;;31.50;60.80;;;;;;5126277;27;20038;-70
2021/12/14 06:51:41;;;;;;;4.00;1.58;;;32.20;56.80;;;;;;5137357;27;20023;-70
2021/12/14 06:54:12;;;;;;;5.55;1.92;;;32.10;57.10;;;;;;5122677;27;20027;-72
2021/12/14 06:56:39;;;;;;;4.10;1.73;;;32.40;56.40;;;;;;5126254;27;20080;-70
2021/12/14 06:59:13;;;;;;;4.38;1.77;;;32.90;55.60;;;;;;5124806;27;20038;-69
2021/12/14 07:01:51;;;;;;;5.70;1.67;;;33.10;56.00;;;;;;5125481;27;20657;-68
2021/12/14 07:04:27;;;;;;;5.55;1.40;;;33.20;54.10;;;;;;5117693;27;20433;-68
2021/12/14 07:07:14;;;;;;;3.85;1.50;;;32.90;56.70;;;;;;5100377;27;20229;-71
2021/12/14 07:09:53;;;;;;;5.10;1.92;;;33.30;52.70;;;;;;5102656;27;20388;-69
2021/12/14 07:12:25;;;;;;;4.82;1.60;;;33.80;52.50;;;;;;5101191;27;20047;-70
2021/12/14 07:15:20;;;;;;;4.03;1.60;;;33.10;53.40;;;;;;5117517;27;20034;-71
2021/12/14 07:17:59;;;;;;;4.72;1.67;;;33.10;52.90;;;;;;5115074;27;20043;-70
2021/12/14 07:20:34;;;;;;;4.68;1.45;;;33.50;51.50;;;;;;5103713;27;20032;-70
2021/12/14 07:23:15;;;;;;;4.22;1.48;;;33.30;51.00;;;;;;5117839;27;20415;-69
2021/12/14 07:25:43;;;;;;;5.88;2.17;;;32.30;53.40;;;;;;5120352;27;20055;-70
2021/12/14 07:28:16;;;;;;;5.20;2.13;;;31.80;54.70;;;;;;5117346;27;20025;-70
2021/12/14 07:30:46;;;;;;;3.90;1.42;;;32.00;56.10;;;;;;5138940;27;20031;-69
2021/12/14 07:33:28;;;;;;;5.85;1.60;;;32.10;56.10;;;;;;5102248;27;20027;-71
2021/12/14 07:36:06;;;;;;;7.90;2.17;;;32.00;55.00;;;;;;5093614;27;20027;-69
2021/12/14 07:39:13;;;;;;;4.30;1.65;;;31.80;54.80;;;;;;5116660;27;20031;-69
2021/12/14 07:41:50;;;;;;;6.68;1.95;;;30.60;57.00;;;;;;5062923;27;21033;-68
2021/12/14 07:44:24;;;;;;;4.47;1.90;;;30.10;58.90;;;;;;5116298;27;20725;-70
2021/12/14 07:47:14;;;;;;;5.45;1.73;;;30.30;57.30;;;;;;5116204;27;20031;-70
2021/12/14 07:49:43;;;;;;;5.38;2.25;;;30.80;57.50;;;;;;5102932;27;20042;-69
2021/12/14 07:52:18;;;;;;;6.80;1.70;;;31.10;56.60;;;;;;5115765;27;20060;-70
2021/12/14 07:54:49;;;;;;;4.22;1.42;;;30.90;57.00;;;;;;5114643;27;20526;-71
2021/12/14 07:57:19;;;;;;;5.07;1.77;;;30.40;58.40;;;;;;5117366;27;20042;-72
2021/12/14 07:59:49;;;;;;;3.92;1.75;;;30.10;59.20;;;;;;5115347;27;20045;-69
2021/12/14 08:02:25;;;;;;;6.88;1.65;;;30.00;60.20;;;;;;5116681;27;20023;-70
2021/12/14 08:05:03;;;;;;;4.22;1.92;;;29.90;60.80;;;;;;5117041;27;20474;-73
2021/12/14 08:07:54;;;;;;;4.15;1.75;;;30.20;60.60;;;;;;5115130;27;20023;-70
2021/12/14 08:10:24;;;;;;;4.38;1.30;;;30.50;57.90;;;;;;5116664;27;20087;-71
2021/12/14 08:13:06;;;;;;;5.03;1.60;;;30.00;58.10;;;;;;5115561;27;20132;-73
2021/12/14 08:15:40;;;;;;;7.07;1.88;;;29.70;59.10;;;;;;5114726;27;20030;-70
2021/12/14 08:18:19;;;;;;;5.60;1.75;;;28.90;61.90;;;;;;5115006;27;20546;-72
2021/12/14 08:20:59;;;;;;;6.47;1.92;;;28.30;62.70;;;;;;5100362;27;20026;-70
2021/12/14 08:23:32;;;;;;;4.25;1.85;;;27.90;64.30;;;;;;5122504;27;20099;-71
2021/12/14 08:26:25;;;;;;;6.43;1.73;;;27.30;65.90;;;;;;5123341;27;20172;-71
2021/12/14 08:29:02;;;;;;;6.50;1.70;;;26.40;68.50;;;;;;5112341;27;20043;-73
2021/12/14 08:31:55;;;;;;;7.50;2.10;;;25.60;71.50;;;;;;5116500;27;20120;-67
2021/12/14 08:34:34;;;;;;;5.70;2.03;;;25.10;75.20;;;;;;5105151;27;20094;-73
2021/12/14 08:37:01;;;;;;;5.97;1.75;;;25.00;78.00;;;;;;5116431;27;20023;-69
2021/12/14 08:39:33;;;;;;;4.13;1.60;;;24.80;79.70;;;;;;5102678;27;20925;-76
2021/12/14 08:42:43;;;;;;;3.80;1.80;;;24.40;81.50;;;;;;5116549;27;20027;-74
2021/12/14 08:48:03;;;;;;;3.65;1.80;;;23.90;88.90;;;;;;5117003;27;20096;-74
2021/12/14 08:50:33;;;;;;;7.72;1.90;;;23.50;91.80;;;;;;5117138;27;20089;-70
2021/12/14 08:53:00;;;;;;;7.57;1.77;;;23.20;93.00;;;;;;5116621;27;20122;-69
2021/12/14 08:55:32;;;;;;;5.65;1.92;;;23.10;94.50;;;;;;5102547;27;20023;-69
2021/12/14 08:58:00;;;;;;;6.73;1.90;;;22.80;95.70;;;;;;5117047;27;20805;-70
2021/12/14 09:00:34;;;;;;;3.95;2.00;;;22.70;96.80;;;;;;5102857;27;20081;-75
2021/12/14 09:03:09;;;;;;;4.72;1.80;;;22.60;97.50;;;;;;5099966;27;20161;-67
2021/12/14 09:05:46;;;;;;;10.23;2.08;;;22.40;98.60;;;;;;5114991;27;20031;-76
2021/12/14 09:08:17;;;;;;;4.47;1.95;;;22.30;99.50;;;;;;5113284;27;20069;-67
2021/12/14 09:10:46;;;;;;;6.00;1.98;;;22.20;99.90;;;;;;5115178;27;20102;-66
2021/12/14 09:13:14;;;;;;;5.40;2.22;;;22.00;99.90;;;;;;5114701;27;20027;-76
2021/12/14 09:15:41;;;;;;;5.20;2.10;;;21.80;99.90;;;;;;5115059;27;20076;-70
2021/12/14 09:18:16;;;;;;;4.15;1.70;;;21.70;99.90;;;;;;5113933;27;20031;-75
2021/12/14 09:20:54;;;;;;;5.05;1.98;;;21.60;99.90;;;;;;5114745;27;20372;-69
2021/12/14 09:23:28;;;;;;;6.00;1.73;;;21.60;99.90;;;;;;5114897;27;20434;-68
2021/12/14 09:25:56;;;;;;;6.80;2.35;;;21.40;99.90;;;;;;5115010;27;20183;-67
2021/12/14 09:28:23;;;;;;;7.50;2.10;;;21.30;99.90;;;;;;5101934;27;20068;-68
2021/12/14 09:30:56;;;;;;;6.30;2.30;;;21.30;99.90;;;;;;5114638;27;20019;-68
2021/12/14 09:33:25;;;;;;;6.97;2.10;;;21.30;99.90;;;;;;5115177;27;20032;-69
2021/12/14 09:35:55;;;;;;;7.05;2.40;;;21.30;99.90;;;;;;5114723;27;20574;-77
2021/12/14 09:38:31;;;;;;;7.43;2.83;;;21.10;99.90;;;;;;5101098;27;20031;-67
2021/12/14 09:41:03;;;;;;;6.63;2.10;;;21.10;99.90;;;;;;5084441;28;20050;-69
2021/12/14 09:43:32;;;;;;;7.28;2.10;;;20.90;99.90;;;;;;5118232;27;20051;-68
2021/12/14 09:46:00;;;;;;;6.07;2.30;;;20.80;99.90;;;;;;5099874;28;20527;-69
2021/12/14 09:48:36;;;;;;;6.32;2.55;;;20.70;99.90;;;;;;5113477;28;20032;-69
2021/12/14 09:51:10;;;;;;;8.73;2.40;;;20.60;99.90;;;;;;5120717;27;20103;-78
2021/12/14 09:53:41;;;;;;;7.20;2.10;;;20.50;99.90;;;;;;5120931;27;20042;-77
2021/12/14 09:56:10;;;;;;;5.35;1.90;;;20.50;99.90;;;;;;5121688;27;20027;-70
2021/12/14 09:58:43;;;;;;;7.10;2.55;;;20.40;99.90;;;;;;5121494;27;20114;-65
2021/12/14 10:01:18;;;;;;;6.38;2.55;;;20.50;99.90;;;;;;5119579;27;20024;-76
2021/12/14 10:03:48;;;;;;;7.80;2.58;;;20.50;99.90;;;;;;5120412;27;20069;-68
2021/12/14 10:06:19;;;;;;;6.40;2.75;;;20.50;99.90;;;;;;5121466;27;20034;-67
2021/12/14 10:08:52;;;;;;;9.60;2.78;;;20.40;99.90;;;;;;5119027;27;20027;-74
2021/12/14 10:11:36;;;;;;;;;;;20.30;99.90;;;;;;5120993;27;20023;-75
2021/12/14 10:14:06;;;;;;;6.15;1.95;;;20.20;99.90;;;;;;5119653;27;19916;-68
2021/12/14 10:16:33;;;;;;;5.68;2.40;;;20.00;99.90;;;;;;5120836;27;20103;-68
2021/12/14 10:19:04;;;;;;;7.90;3.20;;;20.00;99.90;;;;;;5122859;27;20110;-71
2021/12/14 10:21:38;;;;;;;6.33;2.87;;;20.00;99.90;;;;;;5119457;27;20027;-68
2021/12/14 10:24:07;;;;;;;7.13;2.97;;;19.90;99.90;;;;;;5117361;27;20031;-70
2021/12/14 10:26:37;;;;;;;6.93;2.40;;;19.90;99.90;;;;;;5119229;27;20508;-65
2021/12/14 10:29:05;;;;;;;8.73;2.40;;;19.90;99.90;;;;;;5104294;27;20027;-68
2021/12/14 10:31:40;;;;;;;9.50;2.53;;;19.80;99.90;;;;;;5116759;27;20038;-69
2021/12/14 10:34:17;;;;;;;6.60;2.30;;;19.60;99.90;;;;;;5117681;27;20488;-68
2021/12/14 10:36:52;;;;;;;8.40;2.95;;;19.50;99.90;;;;;;5126244;27;20611;-77
2021/12/14 10:45:02;;;;;;;6.47;2.03;;;19.50;99.90;;;;;;5128472;27;20156;-69
2021/12/14 10:47:31;;;;;;;8.88;3.00;;;19.50;99.90;;;;;;5128675;27;20035;-74
2021/12/14 10:50:01;;;;;;;10.48;3.05;;;19.50;99.90;;;;;;5130152;27;20325;-71
2021/12/14 10:52:30;;;;;;;8.85;2.75;;;19.30;99.90;;;;;;5127671;27;20030;-68
2021/12/14 10:55:05;;;;;;;10.40;4.65;;;19.20;99.90;;;;;;5129385;27;20470;-70
2021/12/14 10:57:34;;;;;;;10.65;4.43;;;19.30;99.90;;;;;;5129520;27;20034;-69
2021/12/14 11:00:03;;;;;;;7.45;3.90;;;19.30;99.90;;;;;;5128388;27;20049;-66
2021/12/14 11:02:38;;;;;;;10.18;4.35;;;19.30;99.90;;;;;;5124750;27;20475;-76
2021/12/14 11:05:15;;;;;;;8.90;3.70;;;19.20;99.90;;;;;;5122097;27;20031;-70
2021/12/14 11:07:45;;;;;;;8.70;3.50;;;19.00;99.90;;;;;;5121278;27;20023;-69
2021/12/14 11:10:27;;;;;;;13.32;5.70;;;18.90;99.90;;;;;;5126544;27;20490;-68
2021/12/14 11:13:07;;;;;;;9.90;3.97;;;18.90;99.90;;;;;;5126943;27;20415;-70
2021/12/14 11:15:45;;;;;;;8.43;3.00;;;19.00;99.90;;;;;;5126839;27;20259;-70
2021/12/14 11:18:17;;;;;;;8.23;3.72;;;19.00;99.90;;;;;;5124425;27;20031;-66
2021/12/14 11:20:53;;;;;;;12.50;3.55;;;19.00;99.90;;;;;;5127982;27;20037;-69
2021/12/14 11:23:29;;;;;;;8.80;3.80;;;18.90;99.90;;;;;;5127486;27;20027;-70
2021/12/14 11:26:17;;;;;;;8.32;3.58;;;18.90;99.90;;;;;;5127288;27;20019;-76
2021/12/14 11:28:52;;;;;;;8.57;3.60;;;18.70;99.90;;;;;;5126622;27;20052;-68
2021/12/14 11:31:43;;;;;;;11.35;3.47;;;18.70;99.90;;;;;;5126123;27;20031;-74
2021/12/14 11:34:27;;;;;;;9.30;3.15;;;18.70;99.90;;;;;;5124027;27;20015;-74
2021/12/14 11:37:00;;;;;;;9.30;3.50;;;18.70;99.90;;;;;;5126280;27;20027;-69
2021/12/14 11:39:30;;;;;;;5.90;2.70;;;18.60;99.90;;;;;;5124827;27;20072;-74
2021/12/14 11:42:09;;;;;;;9.20;3.60;;;18.60;99.90;;;;;;5126749;27;20141;-73
2021/12/14 11:44:38;;;;;;;7.25;2.92;;;18.60;99.90;;;;;;5124396;27;20043;-68
2021/12/14 11:50:04;;;;;;;10.07;2.97;;;18.50;99.90;;;;;;5125330;27;20085;-74
2021/12/14 11:52:50;;;;;;;7.40;3.38;;;18.40;99.90;;;;;;5125953;27;20114;-67
2021/12/14 11:55:29;;;;;;;12.10;3.10;;;18.40;99.90;;;;;;5124647;27;20023;-68
2021/12/14 11:58:07;;;;;;;9.07;2.90;;;18.30;99.90;;;;;;5125114;27;20402;-67
2021/12/14 12:00:38;;;;;;;7.80;2.95;;;18.30;99.90;;;;;;5124871;27;20482;-73
2021/12/14 12:03:23;;;;;;;10.27;3.30;;;18.30;99.90;;;;;;5106199;27;20027;-66
2021/12/14 12:06:13;;;;;;;15.15;3.92;;;18.20;99.90;;;;;;5124680;27;20027;-67
2021/12/14 12:11:39;;;;;;;7.45;2.70;;;18.00;99.90;;;;;;5124315;27;20037;-71
2021/12/14 12:14:29;;;;;;;10.73;2.95;;;17.90;99.90;;;;;;5124410;27;20026;-67
2021/12/14 12:17:24;;;;;;;7.57;3.05;;;17.90;99.90;;;;;;5105263;27;20114;-72
2021/12/14 12:20:13;;;;;;;10.98;3.53;;;17.90;99.90;;;;;;5124406;27;20023;-73
2021/12/14 12:22:46;;;;;;;11.45;3.78;;;17.90;99.90;;;;;;5124387;27;20177;-73
2021/12/14 12:25:28;;;;;;;14.75;3.85;;;17.90;99.90;;;;;;5123717;27;20410;-67
2021/12/14 12:28:04;;;;;;;12.55;4.10;;;18.00;99.90;;;;;;5125085;27;20035;-67
2021/12/14 12:30:53;;;;;;;10.00;4.22;;;18.00;99.90;;;;;;5127217;27;20035;-72
2021/12/14 12:33:45;;;;;;;9.20;3.20;;;17.90;99.90;;;;;;5120826;27;20055;-72
2021/12/14 12:36:15;;;;;;;11.10;3.38;;;17.90;99.90;;;;;;5097224;27;20097;-67
2021/12/14 12:38:56;;;;;;;14.13;4.78;;;17.80;99.90;;;;;;5122508;27;20022;-67
2021/12/14 12:41:35;;;;;;;11.50;4.13;;;17.80;99.90;;;;;;5126811;27;20046;-73
2021/12/14 12:44:06;;;;;;;12.48;4.13;;;17.70;99.90;;;;;;5126728;27;20309;-72
2021/12/14 12:46:42;;;;;;;7.72;3.55;;;17.70;99.90;;;;;;5126749;27;20984;-72
2021/12/14 12:49:22;;;;;;;10.90;4.05;;;17.70;99.90;;;;;;5127313;27;20491;-66
2021/12/14 12:52:10;;;;;;;11.68;4.15;;;17.60;99.90;;;;;;5129967;27;20171;-66
2021/12/14 12:55:01;;;;;;;10.32;3.88;;;17.60;99.90;;;;;;5129379;27;20050;-72
2021/12/14 12:57:58;;;;;;;8.10;3.70;;;17.60;99.90;;;;;;5110830;27;20027;-67
2021/12/14 13:00:44;;;;;;;13.23;3.10;;;17.40;99.90;;;;;;5129147;27;20047;-71
2021/12/14 13:03:20;;;;;;;21.25;3.42;;;17.30;99.90;;;;;;5129737;27;20066;-67
2021/12/14 13:05:53;;;;;;;13.63;3.92;;;17.20;99.90;;;;;;5129719;27;20011;-71
2021/12/14 13:08:47;;;;;;;9.77;3.53;;;17.20;99.90;;;;;;5127439;27;20023;-73
2021/12/14 13:11:21;;;;;;;9.95;3.30;;;17.20;99.90;;;;;;5129769;27;20631;-71
2021/12/14 13:13:53;;;;;;;8.35;4.07;;;17.30;99.90;;;;;;5129310;27;21331;-71
2021/12/14 13:16:25;;;;;;;10.70;3.28;;;17.20;99.90;;;;;;5129579;27;20072;-72
2021/12/14 13:18:52;;;;;;;12.13;4.07;;;17.20;99.90;;;;;;5129113;27;20068;-73
2021/12/14 13:21:37;;;;;;;7.03;3.90;;;17.20;99.90;;;;;;5128927;27;20023;-72
2021/12/14 13:24:12;;;;;;;11.00;3.28;;;17.20;99.90;;;;;;5128575;27;20047;-67
2021/12/14 13:26:44;;;;;;;7.45;3.55;;;17.20;99.90;;;;;;5110615;27;20027;-67
2021/12/14 13:29:17;;;;;;;9.15;4.57;;;17.20;99.90;;;;;;5129028;27;20023;-66
2021/12/14 13:31:43;;;;;;;;;;;17.20;99.90;;;;;;5128926;27;20019;-71
2021/12/14 13:34:14;;;;;;;8.68;3.15;;;17.20;99.90;;;;;;5128702;27;19997;-73
2021/12/14 13:36:42;;;;;;;9.07;4.25;;;17.20;99.90;;;;;;5129285;27;20023;-72
2021/12/14 13:39:13;;;;;;;6.43;2.83;;;17.10;99.90;;;;;;5128764;27;20030;-72
2021/12/14 13:41:52;;;;;;;7.55;3.42;;;17.10;99.90;;;;;;5129126;27;20087;-72
2021/12/14 13:44:19;;;;;;;7.18;3.60;;;17.00;99.90;;;;;;5123811;27;20031;-72
2021/12/14 13:46:46;;;;;;;11.90;3.72;;;17.00;99.90;;;;;;5128598;27;20031;-66
2021/12/14 13:49:13;;;;;;;10.25;3.30;;;17.00;99.90;;;;;;5129076;28;20304;-66
2021/12/14 13:51:40;;;;;;;9.70;4.10;;;17.00;99.90;;;;;;5129029;28;20031;-72
2021/12/14 13:54:07;;;;;;;11.98;3.90;;;17.10;99.90;;;;;;5129658;28;20047;-68
2021/12/14 13:56:38;;;;;;;12.63;3.40;;;17.10;99.90;;;;;;5129091;28;20404;-67
2021/12/14 13:59:07;;;;;;;9.55;3.40;;;17.10;99.90;;;;;;5129131;28;20553;-72
2021/12/14 14:01:41;;;;;;;9.70;3.72;;;17.10;99.90;;;;;;5128764;28;20560;-67
2021/12/14 14:04:12;;;;;;;5.75;2.83;;;17.00;99.90;;;;;;5122630;28;20047;-66
2021/12/14 14:06:40;;;;;;;7.35;2.85;;;16.90;99.90;;;;;;5126738;28;20030;-66